Time;durP1;ratioP1;P1;durP2;ratioP2;P2;SDS_P1;SDS_P2;PMS_P1;PMS_P2;Temp;Humidity;BMP_temperature;BMP_pressure;BME280_temperature;BME280_humidity;BME280_pressure;Samples;Min_cycle;Max_cycle;Signal;HPM_P1;HPM_P2
2023/08/19 00:00:53;;;;;;;33.08;25.35;;;;;;;-148.15;100.00;61821.78;4976473;28;20381;-95
2023/08/19 00:03:19;;;;;;;32.80;26.10;;;;;;;-148.15;100.00;61821.78;4991929;28;20030;-95
2023/08/19 00:05:46;;;;;;;30.07;24.80;;;;;;;-148.15;100.00;61821.78;4991143;28;20022;-95
2023/08/19 00:08:12;;;;;;;32.58;25.75;;;;;;;-148.15;100.00;61821.78;4991089;28;20394;-95
2023/08/19 00:10:38;;;;;;;30.55;24.17;;;;;;;-148.15;100.00;61821.78;4983557;28;20733;-96
2023/08/19 00:13:04;;;;;;;33.03;25.73;;;;;;;-148.15;100.00;61821.78;4972506;28;20122;-96
2023/08/19 00:15:29;;;;;;;36.67;26.87;;;;;;;-148.15;100.00;61821.78;4972560;28;20317;-96
2023/08/19 00:17:54;;;;;;;37.53;26.67;;;;;;;-148.15;100.00;61821.78;4972299;28;20034;-96
2023/08/19 00:20:21;;;;;;;32.85;25.70;;;;;;;-148.15;100.00;61821.78;4973088;28;20030;-96
2023/08/19 00:22:46;;;;;;;36.20;25.47;;;;;;;-148.15;100.00;61821.78;4972526;28;20420;-96
2023/08/19 00:25:11;;;;;;;38.47;27.00;;;;;;;-148.15;100.00;61821.78;4972365;28;20385;-96
2023/08/19 00:27:37;;;;;;;32.80;26.80;;;;;;;-148.15;100.00;61821.78;4973014;28;20026;-95
2023/08/19 00:30:03;;;;;;;33.40;25.33;;;;;;;-148.15;100.00;61821.78;4971779;28;20027;-94
2023/08/19 00:32:29;;;;;;;37.38;24.80;;;;;;;-148.15;100.00;61821.78;4972109;28;20023;-95
2023/08/19 00:34:55;;;;;;;32.95;25.15;;;;;;;-148.15;100.00;61821.78;4972052;28;20031;-96
2023/08/19 00:37:20;;;;;;;34.53;27.10;;;;;;;-148.15;100.00;61821.78;4972085;28;20196;-96
2023/08/19 00:39:45;;;;;;;32.87;25.37;;;;;;;-148.15;100.00;61821.78;4972137;28;20081;-96
2023/08/19 00:42:11;;;;;;;32.63;25.63;;;;;;;-148.15;100.00;61821.78;4972614;28;20027;-96
2023/08/19 00:44:36;;;;;;;34.53;26.30;;;;;;;-148.15;100.00;61821.78;4983768;28;20083;-96
2023/08/19 00:47:02;;;;;;;38.60;25.40;;;;;;;-148.15;100.00;61821.78;4991331;28;20030;-95
2023/08/19 00:49:29;;;;;;;34.57;26.27;;;;;;;-148.15;100.00;61821.78;4992435;28;20030;-95
2023/08/19 00:51:55;;;;;;;32.90;25.63;;;;;;;-148.15;100.00;61821.78;5001311;28;20027;-95
2023/08/19 00:54:20;;;;;;;32.15;26.05;;;;;;;-148.15;100.00;61821.78;5009746;28;20045;-95
2023/08/19 00:56:46;;;;;;;35.63;26.02;;;;;;;-148.15;100.00;61821.78;4997345;28;20057;-95
2023/08/19 00:59:11;;;;;;;36.67;26.27;;;;;;;-148.15;100.00;61821.78;4996430;28;20013;-95
2023/08/19 01:01:37;;;;;;;34.27;26.57;;;;;;;-148.15;100.00;61821.78;5007020;28;20050;-95
2023/08/19 01:04:03;;;;;;;37.30;26.50;;;;;;;-148.15;100.00;61821.78;5008949;28;20034;-96
2023/08/19 01:06:45;;;;;;;34.93;26.40;;;;;;;-148.15;100.00;61821.78;5005851;28;20053;-94
2023/08/19 01:09:37;;;;;;;31.20;25.98;;;;;;;-148.15;100.00;61821.78;5013190;28;20035;-95
2023/08/19 01:12:28;;;;;;;36.10;27.15;;;;;;;-148.15;100.00;61821.78;5007274;28;20474;-95
2023/08/19 01:15:20;;;;;;;35.00;26.15;;;;;;;-148.15;100.00;61821.78;4997238;28;20038;-95
2023/08/19 01:17:48;;;;;;;34.83;25.50;;;;;;;-148.15;100.00;61821.78;5001113;28;20030;-94
2023/08/19 01:20:14;;;;;;;36.20;26.55;;;;;;;-148.15;100.00;61821.78;5000134;28;20034;-95
2023/08/19 01:22:43;;;;;;;36.35;27.20;;;;;;;-148.15;100.00;61821.78;5001006;28;20030;-95
2023/08/19 01:25:10;;;;;;;36.87;26.70;;;;;;;-148.15;100.00;61821.78;4987789;28;20034;-95
2023/08/19 01:27:35;;;;;;;35.30;26.30;;;;;;;-148.15;100.00;61821.78;5001821;28;20304;-96
2023/08/19 01:30:02;;;;;;;37.05;25.48;;;;;;;-148.15;100.00;61821.78;5013492;28;20494;-96
2023/08/19 01:32:29;;;;;;;34.15;25.52;;;;;;;-148.15;100.00;61821.78;5006239;28;20027;-95
2023/08/19 01:34:55;;;;;;;29.80;24.90;;;;;;;-148.15;100.00;61821.78;5003668;28;20030;-96
2023/08/19 01:37:34;;;;;;;32.85;24.73;;;;;;;-148.15;100.00;61821.78;5008536;28;20031;-96
2023/08/19 01:40:00;;;;;;;32.83;24.80;;;;;;;-148.15;100.00;61821.78;5013420;28;20086;-95
2023/08/19 01:42:26;;;;;;;30.03;23.37;;;;;;;-148.15;100.00;61821.78;5010662;28;20366;-95
2023/08/19 01:44:54;;;;;;;27.53;21.40;;;;;;;-148.15;100.00;61821.78;5009059;28;20376;-95
2023/08/19 01:47:20;;;;;;;26.90;21.52;;;;;;;-148.15;100.00;61821.78;5006751;28;20022;-96
2023/08/19 01:49:46;;;;;;;30.38;21.35;;;;;;;-148.15;100.00;61821.78;5003001;28;20088;-96
2023/08/19 01:52:12;;;;;;;24.70;20.63;;;;;;;-148.15;100.00;61821.78;5002212;28;20225;-96
2023/08/19 01:54:38;;;;;;;29.67;21.73;;;;;;;-148.15;100.00;61821.78;4990337;28;20389;-95
2023/08/19 01:57:05;;;;;;;27.35;20.63;;;;;;;-148.15;100.00;61821.78;4975948;28;20057;-96
2023/08/19 01:59:31;;;;;;;25.42;21.23;;;;;;;-148.15;100.00;61821.78;5000328;28;20026;-96
2023/08/19 02:01:56;;;;;;;25.03;19.93;;;;;;;-148.15;100.00;61821.78;4999047;28;20038;-95
2023/08/19 02:04:21;;;;;;;29.03;19.73;;;;;;;-148.15;100.00;61821.78;4997322;28;20033;-96
2023/08/19 02:06:46;;;;;;;24.10;19.27;;;;;;;-148.15;100.00;61821.78;4994665;28;20030;-96
2023/08/19 02:09:12;;;;;;;25.73;19.83;;;;;;;-148.15;100.00;61821.78;4981199;28;20330;-96
2023/08/19 02:11:37;;;;;;;23.23;18.57;;;;;;;-148.15;100.00;61821.78;4987293;28;20022;-96
2023/08/19 02:14:03;;;;;;;24.33;19.40;;;;;;;-148.15;100.00;61821.78;4985894;28;20042;-96
2023/08/19 02:16:29;;;;;;;27.35;19.63;;;;;;;-148.15;100.00;61821.78;4976866;28;20174;-95
2023/08/19 02:18:57;;;;;;;24.77;18.20;;;;;;;-148.15;100.00;61821.78;4994067;28;20012;-96
2023/08/19 02:21:22;;;;;;;24.05;19.17;;;;;;;-148.15;100.00;61821.78;4977372;28;20027;-96
2023/08/19 02:23:47;;;;;;;21.40;18.70;;;;;;;-148.15;100.00;61821.78;4993424;28;20022;-95
2023/08/19 02:26:13;;;;;;;24.23;18.63;;;;;;;-148.15;100.00;61821.78;4994454;28;20281;-96
2023/08/19 02:28:38;;;;;;;20.80;17.47;;;;;;;-148.15;100.00;61821.78;4994195;28;20237;-94
2023/08/19 02:31:03;;;;;;;24.03;17.07;;;;;;;-148.15;100.00;61821.78;4994331;28;20022;-94
2023/08/19 02:33:29;;;;;;;20.23;16.23;;;;;;;-148.15;100.00;61821.78;4995886;28;20490;-96
2023/08/19 02:35:55;;;;;;;21.85;17.17;;;;;;;-148.15;100.00;61821.78;4999229;28;20081;-96
2023/08/19 02:38:20;;;;;;;18.63;16.53;;;;;;;-148.15;100.00;61821.78;5000414;28;20066;-95
2023/08/19 02:40:53;;;;;;;21.53;17.33;;;;;;;-148.15;100.00;61821.78;5002493;28;20046;-95
2023/08/19 02:43:18;;;;;;;19.33;16.92;;;;;;;-148.15;100.00;61821.78;5015567;28;20034;-95
2023/08/19 02:45:45;;;;;;;21.25;16.85;;;;;;;-148.15;100.00;61821.78;4997744;28;20018;-95
2023/08/19 02:48:11;;;;;;;23.53;15.87;;;;;;;-148.15;100.00;61821.78;5014689;28;20038;-94
2023/08/19 02:50:36;;;;;;;17.50;15.70;;;;;;;-148.15;100.00;61821.78;5013594;28;20281;-95
2023/08/19 02:53:02;;;;;;;20.87;17.00;;;;;;;-148.15;100.00;61821.78;5016168;28;20163;-95
2023/08/19 02:55:27;;;;;;;18.67;16.53;;;;;;;-148.15;100.00;61821.78;5003748;28;20101;-95
2023/08/19 02:57:52;;;;;;;18.98;15.77;;;;;;;-148.15;100.00;61821.78;4997765;28;20153;-94
2023/08/19 03:00:18;;;;;;;21.13;16.53;;;;;;;-148.15;100.00;61821.78;4999486;28;20098;-95
2023/08/19 03:02:49;;;;;;;20.60;15.60;;;;;;;-148.15;100.00;61821.78;4999261;28;20026;-95
2023/08/19 03:05:16;;;;;;;21.08;16.42;;;;;;;-148.15;100.00;61821.78;4997744;28;20022;-95
2023/08/19 03:07:42;;;;;;;22.20;15.45;;;;;;;-148.15;100.00;61821.78;4996778;28;20032;-94
2023/08/19 03:10:07;;;;;;;18.80;15.90;;;;;;;-148.15;100.00;61821.78;4997348;28;20019;-95
2023/08/19 03:12:32;;;;;;;18.10;14.80;;;;;;;-148.15;100.00;61821.78;4995587;28;20379;-96
2023/08/19 03:14:58;;;;;;;20.73;15.27;;;;;;;-148.15;100.00;61821.78;4994522;28;20022;-94
2023/08/19 03:17:24;;;;;;;16.57;14.80;;;;;;;-148.15;100.00;61821.78;4994564;28;20026;-95
2023/08/19 03:19:49;;;;;;;20.05;15.65;;;;;;;-148.15;100.00;61821.78;4993795;28;20022;-95
2023/08/19 03:22:14;;;;;;;21.83;15.53;;;;;;;-148.15;100.00;61821.78;4995279;28;20037;-95
2023/08/19 03:24:40;;;;;;;16.80;15.00;;;;;;;-148.15;100.00;61821.78;5000476;28;20072;-95
2023/08/19 03:27:05;;;;;;;23.70;15.13;;;;;;;-148.15;100.00;61821.78;4995824;28;20030;-94
2023/08/19 03:29:30;;;;;;;19.20;14.57;;;;;;;-148.15;100.00;61821.78;4999100;28;20027;-95
2023/08/19 03:31:57;;;;;;;16.40;14.68;;;;;;;-148.15;100.00;61821.78;5010492;28;20070;-95
2023/08/19 03:34:22;;;;;;;18.93;15.50;;;;;;;-148.15;100.00;61821.78;4996526;28;20030;-94
2023/08/19 03:36:48;;;;;;;16.35;14.63;;;;;;;-148.15;100.00;61821.78;5003827;28;20044;-93
2023/08/19 03:39:14;;;;;;;20.00;14.73;;;;;;;-148.15;100.00;61821.78;5005317;28;20117;-96
2023/08/19 03:41:39;;;;;;;19.70;15.10;;;;;;;-148.15;100.00;61821.78;4995534;28;20100;-95
2023/08/19 03:44:04;;;;;;;21.20;14.93;;;;;;;-148.15;100.00;61821.78;4993044;28;20038;-96
2023/08/19 03:46:30;;;;;;;17.48;13.75;;;;;;;-148.15;100.00;61821.78;4983504;28;20096;-94
2023/08/19 03:48:55;;;;;;;17.27;13.60;;;;;;;-148.15;100.00;61821.78;4974819;28;20045;-95
2023/08/19 03:51:20;;;;;;;19.23;14.17;;;;;;;-148.15;100.00;61821.78;4974553;28;20030;-95
2023/08/19 03:53:46;;;;;;;16.20;13.63;;;;;;;-148.15;100.00;61821.78;4975846;28;20023;-95
2023/08/19 03:56:11;;;;;;;16.50;13.83;;;;;;;-148.15;100.00;61821.78;4993963;28;20500;-95
2023/08/19 03:58:36;;;;;;;17.23;12.87;;;;;;;-148.15;100.00;61821.78;4993165;28;20037;-94
2023/08/19 04:01:07;;;;;;;17.40;12.40;;;;;;;-148.15;100.00;61821.78;4973804;28;20031;-96
2023/08/19 04:03:32;;;;;;;14.25;12.75;;;;;;;-148.15;100.00;61821.78;4976630;28;20054;-95
2023/08/19 04:05:58;;;;;;;15.03;12.13;;;;;;;-148.15;100.00;61821.78;4977685;28;20069;-93
2023/08/19 04:08:23;;;;;;;16.80;12.63;;;;;;;-148.15;100.00;61821.78;4980244;28;20035;-95
2023/08/19 04:10:49;;;;;;;19.23;13.27;;;;;;;-148.15;100.00;61821.78;4978295;28;20282;-95
2023/08/19 04:13:16;;;;;;;14.07;12.63;;;;;;;-148.15;100.00;61821.78;4979026;28;20478;-95
2023/08/19 04:15:42;;;;;;;14.43;12.43;;;;;;;-148.15;100.00;61821.78;4978870;28;20027;-96
2023/08/19 04:18:08;;;;;;;15.00;11.97;;;;;;;-148.15;100.00;61821.78;4981481;28;20325;-95
2023/08/19 04:20:39;;;;;;;14.93;13.23;;;;;;;-148.15;100.00;61821.78;4964320;28;20101;-95
2023/08/19 04:23:05;;;;;;;15.43;12.70;;;;;;;-148.15;100.00;61821.78;4981185;28;20027;-95
2023/08/19 04:25:31;;;;;;;18.07;12.20;;;;;;;-148.15;100.00;61821.78;4997108;28;20030;-95
2023/08/19 04:27:56;;;;;;;15.23;13.13;;;;;;;-148.15;100.00;61821.78;4999087;28;20367;-95
2023/08/19 04:30:22;;;;;;;15.73;11.87;;;;;;;-148.15;100.00;61821.78;5000804;28;20023;-96
2023/08/19 04:32:47;;;;;;;13.53;11.50;;;;;;;-148.15;100.00;61821.78;5000145;28;20285;-95
2023/08/19 04:35:12;;;;;;;19.83;11.60;;;;;;;-148.15;100.00;61821.78;4988701;28;20030;-95
2023/08/19 04:37:38;;;;;;;16.83;12.27;;;;;;;-148.15;100.00;61821.78;4981233;28;20030;-95
2023/08/19 04:40:09;;;;;;;13.70;12.13;;;;;;;-148.15;100.00;61821.78;4980841;28;20097;-95
2023/08/19 04:42:35;;;;;;;15.40;11.30;;;;;;;-148.15;100.00;61821.78;4972201;28;20061;-95
2023/08/19 04:45:01;;;;;;;14.07;11.30;;;;;;;-148.15;100.00;61821.78;4974713;28;20069;-94
2023/08/19 04:47:26;;;;;;;12.97;10.60;;;;;;;-148.15;100.00;61821.78;4967124;28;20434;-95
2023/08/19 04:49:51;;;;;;;14.00;10.73;;;;;;;-148.15;100.00;61821.78;5001961;28;20072;-94
2023/08/19 04:52:17;;;;;;;17.30;11.00;;;;;;;-148.15;100.00;61821.78;5005934;28;20022;-95
2023/08/19 04:54:42;;;;;;;12.03;10.80;;;;;;;-148.15;100.00;61821.78;4992866;28;20018;-95
2023/08/19 04:57:07;;;;;;;13.07;10.63;;;;;;;-148.15;100.00;61821.78;4981361;28;20011;-95
2023/08/19 04:59:33;;;;;;;14.20;10.27;;;;;;;-148.15;100.00;61821.78;4983992;28;20514;-95
2023/08/19 05:01:58;;;;;;;11.73;10.43;;;;;;;-148.15;100.00;61821.78;4987309;28;20498;-95
2023/08/19 05:04:24;;;;;;;14.98;10.15;;;;;;;-148.15;100.00;61821.78;4992499;28;20011;-93
2023/08/19 05:06:49;;;;;;;12.33;9.87;;;;;;;-148.15;100.00;61821.78;4996075;28;20015;-94
2023/08/19 05:09:14;;;;;;;14.73;10.13;;;;;;;-148.15;100.00;61821.78;5014416;28;20041;-95
2023/08/19 05:11:40;;;;;;;15.83;9.50;;;;;;;-148.15;100.00;61821.78;5016227;28;20085;-94
2023/08/19 05:14:05;;;;;;;10.67;9.57;;;;;;;-148.15;100.00;61821.78;5016372;28;20082;-94
2023/08/19 05:16:30;;;;;;;15.88;9.55;;;;;;;-148.15;100.00;61821.78;5015906;28;20034;-94
2023/08/19 05:19:05;;;;;;;13.93;9.50;;;;;;;-148.15;100.00;61821.78;5016483;28;20042;-95
2023/08/19 05:21:30;;;;;;;16.70;9.65;;;;;;;-148.15;100.00;61821.78;5005405;28;20145;-94
2023/08/19 05:23:55;;;;;;;10.70;9.60;;;;;;;-148.15;100.00;61821.78;5000694;28;20026;-94
2023/08/19 05:26:21;;;;;;;10.73;9.17;;;;;;;-148.15;100.00;61821.78;5015752;28;20027;-93
2023/08/19 05:28:46;;;;;;;10.70;9.40;;;;;;;-148.15;100.00;61821.78;4999141;28;20029;-93
2023/08/19 05:31:11;;;;;;;12.57;9.13;;;;;;;-148.15;100.00;61821.78;5013630;28;20015;-93
2023/08/19 05:33:37;;;;;;;10.15;8.95;;;;;;;-148.15;100.00;61821.78;5010397;28;20402;-88
2023/08/19 05:36:02;;;;;;;13.87;9.13;;;;;;;-148.15;100.00;61821.78;4994876;28;20014;-91
2023/08/19 05:38:27;;;;;;;10.50;9.27;;;;;;;-148.15;100.00;61821.78;5002128;28;20218;-90
2023/08/19 05:40:53;;;;;;;11.03;9.10;;;;;;;-148.15;100.00;61821.78;5003223;28;20034;-90
2023/08/19 05:43:18;;;;;;;10.23;8.73;;;;;;;-148.15;100.00;61821.78;5005790;28;20034;-89
2023/08/19 05:45:43;;;;;;;12.77;9.13;;;;;;;-148.15;100.00;61821.78;4998941;28;20026;-90
2023/08/19 05:48:09;;;;;;;15.97;8.97;;;;;;;-148.15;100.00;61821.78;4996721;28;20029;-87
2023/08/19 05:50:34;;;;;;;13.97;9.37;;;;;;;-148.15;100.00;61821.78;4992896;28;20035;-87
2023/08/19 05:52:59;;;;;;;11.93;9.30;;;;;;;-148.15;100.00;61821.78;4993057;28;20085;-88
2023/08/19 05:55:24;;;;;;;17.03;9.10;;;;;;;-148.15;100.00;61821.78;4994889;28;20031;-87
2023/08/19 05:57:50;;;;;;;11.67;9.20;;;;;;;-148.15;100.00;61821.78;4995013;28;20117;-86
2023/08/19 06:00:16;;;;;;;15.27;8.60;;;;;;;-148.15;100.00;61821.78;4995792;28;20031;-87
2023/08/19 06:02:41;;;;;;;16.60;9.20;;;;;;;-148.15;100.00;61821.78;4992946;28;20041;-88
2023/08/19 06:05:07;;;;;;;13.23;9.20;;;;;;;-148.15;100.00;61821.78;4988947;28;20082;-87
2023/08/19 06:07:33;;;;;;;11.23;8.75;;;;;;;-148.15;100.00;61821.78;4990219;28;20125;-87
2023/08/19 06:09:59;;;;;;;14.53;9.07;;;;;;;-148.15;100.00;61821.78;4981756;28;20023;-87
2023/08/19 06:12:24;;;;;;;16.95;9.27;;;;;;;-148.15;100.00;61821.78;4983143;28;20472;-87
2023/08/19 06:14:49;;;;;;;16.60;8.97;;;;;;;-148.15;100.00;61821.78;4977421;28;20035;-87
2023/08/19 06:17:14;;;;;;;13.13;8.77;;;;;;;-148.15;100.00;61821.78;4978792;28;20027;-87
2023/08/19 06:19:40;;;;;;;11.33;9.23;;;;;;;-148.15;100.00;61821.78;4996902;28;20031;-88
2023/08/19 06:22:05;;;;;;;12.13;9.10;;;;;;;-148.15;100.00;61821.78;5000323;28;20046;-88
2023/08/19 06:24:30;;;;;;;12.15;8.38;;;;;;;-148.15;100.00;61821.78;4996864;28;20030;-86
2023/08/19 06:26:56;;;;;;;14.13;8.87;;;;;;;-148.15;100.00;61821.78;4992764;28;20424;-85
2023/08/19 06:29:21;;;;;;;11.87;8.83;;;;;;;-148.15;100.00;61821.78;4992662;28;20034;-85
2023/08/19 06:31:46;;;;;;;11.10;7.70;;;;;;;-148.15;100.00;61821.78;4998170;28;20097;-89
2023/08/19 06:34:12;;;;;;;16.33;9.20;;;;;;;-148.15;100.00;61821.78;5003248;28;20052;-88
2023/08/19 06:36:41;;;;;;;12.93;7.95;;;;;;;-148.15;100.00;61821.78;5003460;28;20034;-88
2023/08/19 06:39:12;;;;;;;12.15;8.45;;;;;;;-148.15;100.00;61821.78;4999013;28;20043;-88
2023/08/19 06:41:39;;;;;;;11.27;8.60;;;;;;;-148.15;100.00;61821.78;4998084;28;20081;-86
2023/08/19 06:44:07;;;;;;;10.02;7.68;;;;;;;-148.15;100.00;61821.78;4997118;28;20022;-86
2023/08/19 06:46:33;;;;;;;15.43;7.67;;;;;;;-148.15;100.00;61821.78;5005969;28;20033;-91
2023/08/19 06:48:59;;;;;;;12.97;7.90;;;;;;;-148.15;100.00;61821.78;5003384;28;20364;-90
2023/08/19 06:51:25;;;;;;;11.75;7.65;;;;;;;-148.15;100.00;61821.78;4993043;28;20090;-90
2023/08/19 06:53:51;;;;;;;14.27;7.20;;;;;;;-148.15;100.00;61821.78;4998142;28;20027;-90
2023/08/19 06:57:06;;;;;;;10.77;7.43;;;;;;;-148.15;100.00;61821.78;5379288;23;20046;-91
2023/08/19 06:59:36;;;;;;;13.60;7.25;;;;;;;-148.15;100.00;61821.78;4936746;28;20047;-90
2023/08/19 07:02:04;;;;;;;10.68;7.35;;;;;;;-148.15;100.00;61821.78;5015594;28;20026;-91
2023/08/19 07:04:31;;;;;;;11.48;7.15;;;;;;;-148.15;100.00;61821.78;5016610;28;20013;-90
2023/08/19 07:06:58;;;;;;;10.98;7.07;;;;;;;-148.15;100.00;61821.78;5016116;28;20022;-90
2023/08/19 07:09:24;;;;;;;8.57;6.72;;;;;;;-148.15;100.00;61821.78;5016036;28;20045;-90
2023/08/19 07:11:52;;;;;;;9.38;7.18;;;;;;;-148.15;100.00;61821.78;5016130;28;20014;-92
2023/08/19 07:14:18;;;;;;;10.93;7.40;;;;;;;-148.15;100.00;61821.78;5005422;28;20377;-92
2023/08/19 07:16:45;;;;;;;10.77;7.30;;;;;;;-148.15;100.00;61821.78;5001077;28;20288;-90
2023/08/19 07:19:15;;;;;;;12.88;7.18;;;;;;;-148.15;100.00;61821.78;5002917;28;20026;-90
2023/08/19 07:21:42;;;;;;;10.18;7.40;;;;;;;-148.15;100.00;61821.78;5003535;28;20054;-90
2023/08/19 07:24:08;;;;;;;8.50;7.13;;;;;;;-148.15;100.00;61821.78;5007145;28;20034;-91
2023/08/19 07:26:36;;;;;;;13.15;7.53;;;;;;;-148.15;100.00;61821.78;5012898;28;20085;-91
2023/08/19 07:29:02;;;;;;;8.50;7.20;;;;;;;-148.15;100.00;61821.78;5017352;28;20034;-90
2023/08/19 07:31:27;;;;;;;10.68;7.25;;;;;;;-148.15;100.00;61821.78;5014731;28;20250;-90
2023/08/19 07:33:53;;;;;;;11.73;7.00;;;;;;;-148.15;100.00;61821.78;5006168;28;20077;-90
2023/08/19 07:36:18;;;;;;;10.47;6.97;;;;;;;-148.15;100.00;61821.78;4997756;28;20018;-90
2023/08/19 07:38:46;;;;;;;11.60;7.27;;;;;;;-148.15;100.00;61821.78;4997192;28;20401;-91
2023/08/19 07:41:12;;;;;;;11.65;7.30;;;;;;;-148.15;100.00;61821.78;4997859;28;20003;-91
2023/08/19 07:43:38;;;;;;;10.63;7.00;;;;;;;-148.15;100.00;61821.78;4997535;28;20075;-91
2023/08/19 07:46:03;;;;;;;9.65;7.40;;;;;;;-148.15;100.00;61821.78;4997286;28;20006;-91
2023/08/19 07:48:29;;;;;;;10.10;6.97;;;;;;;-148.15;100.00;61821.78;4997354;28;20023;-91
2023/08/19 07:50:54;;;;;;;9.93;6.97;;;;;;;-148.15;100.00;61821.78;4997076;28;20081;-90
2023/08/19 07:53:20;;;;;;;9.33;6.57;;;;;;;-148.15;100.00;61821.78;4989297;28;20091;-91
2023/08/19 07:55:47;;;;;;;10.77;6.40;;;;;;;-148.15;100.00;61821.78;4981615;28;20534;-92
2023/08/19 07:58:12;;;;;;;11.20;6.88;;;;;;;-148.15;100.00;61821.78;4967343;28;20045;-91
2023/08/19 08:00:38;;;;;;;9.10;6.50;;;;;;;-148.15;100.00;61821.78;4992925;28;20070;-91
2023/08/19 08:03:03;;;;;;;7.53;6.40;;;;;;;-148.15;100.00;61821.78;4992396;28;20100;-91
2023/08/19 08:05:29;;;;;;;9.55;7.15;;;;;;;-148.15;100.00;61821.78;5004936;28;20215;-90
2023/08/19 08:07:54;;;;;;;9.07;6.47;;;;;;;-148.15;100.00;61821.78;5012475;28;20030;-91
2023/08/19 08:10:19;;;;;;;11.97;6.53;;;;;;;-148.15;100.00;61821.78;5005706;28;20030;-90
2023/08/19 08:12:45;;;;;;;10.77;6.67;;;;;;;-148.15;100.00;61821.78;5000419;28;20026;-89
2023/08/19 08:15:10;;;;;;;12.97;6.80;;;;;;;-148.15;100.00;61821.78;4985790;28;20026;-90
2023/08/19 08:17:35;;;;;;;9.48;6.65;;;;;;;-148.15;100.00;61821.78;4999428;28;20106;-91
2023/08/19 08:20:01;;;;;;;8.63;6.80;;;;;;;-148.15;100.00;61821.78;5000405;28;20078;-90
2023/08/19 08:22:26;;;;;;;10.63;6.50;;;;;;;-148.15;100.00;61821.78;4955136;28;20109;-90
2023/08/19 08:24:52;;;;;;;7.40;6.57;;;;;;;-148.15;100.00;61821.78;5008682;28;20041;-91
2023/08/19 08:29:52;;;;;;;8.73;6.75;;;;;;;-148.15;100.00;61821.78;5014298;23;20054;-91
2023/08/19 08:32:17;;;;;;;11.47;6.97;;;;;;;-148.15;100.00;61821.78;5014364;28;20082;-91
2023/08/19 08:34:43;;;;;;;17.13;7.00;;;;;;;-148.15;100.00;61821.78;5012495;28;20098;-93
2023/08/19 08:37:08;;;;;;;8.57;7.30;;;;;;;-148.15;100.00;61821.78;5007253;28;20035;-92
2023/08/19 08:39:34;;;;;;;15.47;6.67;;;;;;;-148.15;100.00;61821.78;5008929;28;20045;-91
2023/08/19 08:41:59;;;;;;;12.50;7.22;;;;;;;-148.15;100.00;61821.78;5010780;28;20074;-92
2023/08/19 08:44:26;;;;;;;14.20;7.03;;;;;;;-148.15;100.00;61821.78;5012933;28;20115;-91
2023/08/19 08:46:53;;;;;;;11.15;7.10;;;;;;;-148.15;100.00;61821.78;5011399;28;20038;-90
2023/08/19 08:49:19;;;;;;;12.30;7.47;;;;;;;-148.15;100.00;61821.78;5004370;28;20065;-90
2023/08/19 08:51:44;;;;;;;11.00;7.10;;;;;;;-148.15;100.00;61821.78;5012856;28;20502;-91
2023/08/19 08:54:10;;;;;;;12.10;7.23;;;;;;;-148.15;100.00;61821.78;5013540;28;20034;-90
2023/08/19 08:56:35;;;;;;;8.95;7.03;;;;;;;-148.15;100.00;61821.78;5014264;28;20026;-92
2023/08/19 08:59:01;;;;;;;11.20;6.77;;;;;;;-148.15;100.00;61821.78;5010897;28;20034;-90
2023/08/19 09:01:28;;;;;;;11.85;8.10;;;;;;;-148.15;100.00;61821.78;4993652;28;20482;-91
2023/08/19 09:04:03;;;;;;;14.83;7.20;;;;;;;-148.15;100.00;61821.78;4992269;28;20050;-91
2023/08/19 09:06:29;;;;;;;9.50;7.43;;;;;;;-148.15;100.00;61821.78;4992033;28;20280;-91
2023/08/19 09:09:02;;;;;;;10.50;6.97;;;;;;;-148.15;100.00;61821.78;4991991;28;20402;-90
2023/08/19 09:11:33;;;;;;;10.68;7.40;;;;;;;-148.15;100.00;61821.78;5001934;28;20141;-91
2023/08/19 09:14:10;;;;;;;10.27;7.43;;;;;;;-148.15;100.00;61821.78;4997997;28;20041;-91
2023/08/19 09:16:36;;;;;;;8.98;7.35;;;;;;;-148.15;100.00;61821.78;4995214;28;20416;-91
2023/08/19 09:19:01;;;;;;;9.47;7.07;;;;;;;-148.15;100.00;61821.78;4996374;28;20026;-91
2023/08/19 09:21:29;;;;;;;9.13;7.83;;;;;;;-148.15;100.00;61821.78;4996015;28;20088;-91
2023/08/19 09:23:55;;;;;;;11.27;7.57;;;;;;;-148.15;100.00;61821.78;5003448;28;20101;-90
2023/08/19 09:26:21;;;;;;;12.23;7.75;;;;;;;-148.15;100.00;61821.78;5006634;28;20087;-91
2023/08/19 09:28:46;;;;;;;12.50;7.53;;;;;;;-148.15;100.00;61821.78;5007667;28;20053;-91
2023/08/19 09:31:20;;;;;;;12.57;7.53;;;;;;;-148.15;100.00;61821.78;5007664;28;20077;-91
2023/08/19 09:33:49;;;;;;;11.77;8.15;;;;;;;-148.15;100.00;61821.78;5009868;28;20030;-91
2023/08/19 09:36:15;;;;;;;10.07;7.93;;;;;;;-148.15;100.00;61821.78;5011595;28;20026;-90
2023/08/19 09:38:41;;;;;;;10.15;8.25;;;;;;;-148.15;100.00;61821.78;5011498;28;20026;-91
2023/08/19 09:41:07;;;;;;;12.82;8.93;;;;;;;-148.15;100.00;61821.78;4994310;28;20030;-91
2023/08/19 09:43:33;;;;;;;11.43;9.30;;;;;;;-148.15;100.00;61821.78;5010026;28;20034;-91
2023/08/19 09:45:59;;;;;;;13.05;9.10;;;;;;;-148.15;100.00;61821.78;5012657;28;20021;-91
2023/08/19 09:48:25;;;;;;;11.90;9.07;;;;;;;-148.15;100.00;61821.78;5010848;28;20022;-92
2023/08/19 09:50:51;;;;;;;14.70;9.90;;;;;;;-148.15;100.00;61821.78;5008884;28;20080;-91
2023/08/19 09:53:17;;;;;;;15.83;10.87;;;;;;;-148.15;100.00;61821.78;5000826;28;20033;-91
2023/08/19 09:55:47;;;;;;;15.10;10.98;;;;;;;-148.15;100.00;61821.78;4995237;28;20022;-90
2023/08/19 09:58:13;;;;;;;15.02;11.27;;;;;;;-148.15;100.00;61821.78;4994376;28;20539;-92
2023/08/19 10:00:39;;;;;;;15.57;11.10;;;;;;;-148.15;100.00;61821.78;4997378;28;20026;-90
2023/08/19 10:03:05;;;;;;;15.98;11.48;;;;;;;-148.15;100.00;61821.78;4997958;28;20044;-91
2023/08/19 10:05:34;;;;;;;15.50;11.63;;;;;;;-148.15;100.00;61821.78;5001838;28;20023;-90
2023/08/19 10:08:02;;;;;;;14.63;11.30;;;;;;;-148.15;100.00;61821.78;4998826;28;20105;-92
2023/08/19 10:10:30;;;;;;;15.30;10.60;;;;;;;-148.15;100.00;61821.78;4995312;28;20273;-91
2023/08/19 10:12:57;;;;;;;15.60;10.40;;;;;;;-148.15;100.00;61821.78;4997505;28;20034;-91
2023/08/19 10:15:26;;;;;;;13.38;9.93;;;;;;;-148.15;100.00;61821.78;4994878;28;20038;-91
2023/08/19 10:17:58;;;;;;;12.85;9.93;;;;;;;-148.15;100.00;61821.78;4994218;28;20481;-91
2023/08/19 10:20:26;;;;;;;13.43;10.02;;;;;;;-148.15;100.00;61821.78;4994804;28;20654;-92
2023/08/19 10:22:55;;;;;;;13.47;9.87;;;;;;;-148.15;100.00;61821.78;4994062;28;20620;-91
2023/08/19 10:25:21;;;;;;;15.63;9.80;;;;;;;-148.15;100.00;61821.78;4995268;28;20353;-91
2023/08/19 10:27:46;;;;;;;13.20;10.45;;;;;;;-148.15;100.00;61821.78;4993605;28;20549;-91
2023/08/19 10:30:24;;;;;;;14.97;9.70;;;;;;;-148.15;100.00;61821.78;4990258;28;20027;-91
2023/08/19 10:32:50;;;;;;;15.73;10.25;;;;;;;-148.15;100.00;61821.78;4978719;28;20486;-92
2023/08/19 10:35:17;;;;;;;14.65;11.05;;;;;;;-148.15;100.00;61821.78;4975480;28;20037;-92
2023/08/19 10:37:49;;;;;;;15.88;11.73;;;;;;;-148.15;100.00;61821.78;4976077;28;20697;-92
2023/08/19 10:40:25;;;;;;;16.92;10.68;;;;;;;-148.15;100.00;61821.78;4975647;28;20380;-93
2023/08/19 10:42:58;;;;;;;11.93;10.00;;;;;;;-148.15;100.00;61821.78;4975655;28;20037;-92
2023/08/19 10:45:30;;;;;;;12.75;9.80;;;;;;;-148.15;100.00;61821.78;4975825;28;20124;-93
2023/08/19 10:47:56;;;;;;;13.40;10.50;;;;;;;-148.15;100.00;61821.78;4973779;28;20065;-93
2023/08/19 10:50:21;;;;;;;15.00;9.60;;;;;;;-148.15;100.00;61821.78;4994190;28;20031;-93
2023/08/19 10:53:07;;;;;;;13.20;9.90;;;;;;;-148.15;100.00;61821.78;4994453;28;20053;-92
2023/08/19 10:55:54;;;;;;;13.55;10.23;;;;;;;-148.15;100.00;61821.78;4994115;28;20045;-91
2023/08/19 10:58:22;;;;;;;16.40;10.55;;;;;;;-148.15;100.00;61821.78;4994297;28;20104;-93